Time;durP1;ratioP1;P1;durP2;ratioP2;P2;SDS_P1;SDS_P2;PMS_P1;PMS_P2;Temp;Humidity;BMP_temperature;BMP_pressure;BME280_temperature;BME280_humidity;BME280_pressure;Samples;Min_cycle;Max_cycle;Signal;HPM_P1;HPM_P2
2021/01/29 04:15:22;;;;;;;2.53;1.80;;;-12.80;89.50;;;;;;5051268;28;20178;-68
2021/01/29 04:18:19;;;;;;;6.03;2.20;;;-12.80;90.00;;;;;;5052034;28;20037;-68
2021/01/29 04:20:57;;;;;;;4.10;1.83;;;-12.70;90.10;;;;;;5042275;28;20033;-68
2021/01/29 04:23:35;;;;;;;3.08;1.85;;;-12.80;90.00;;;;;;5051818;28;20028;-68
2021/01/29 04:26:11;;;;;;;2.58;2.00;;;-12.80;90.00;;;;;;5051918;28;20023;-68
2021/01/29 04:28:42;;;;;;;1.85;1.75;;;-12.90;90.10;;;;;;5052069;28;20441;-68
2021/01/29 04:31:11;;;;;;;2.20;2.00;;;-12.90;90.50;;;;;;5051694;28;20067;-68
2021/01/29 04:33:43;;;;;;;2.80;1.80;;;-13.00;90.60;;;;;;5050473;28;20052;-69
2021/01/29 04:36:14;;;;;;;1.90;1.70;;;-13.00;90.50;;;;;;5051596;28;20033;-68
2021/01/29 04:38:42;;;;;;;;;;;-13.10;90.50;;;;;;5052525;28;20037;-68
2021/01/29 04:41:17;;;;;;;2.13;1.92;;;-13.20;90.40;;;;;;5055922;28;19999;-70
2021/01/29 04:44:11;;;;;;;1.80;1.70;;;-13.20;90.50;;;;;;5056065;28;20087;-72
2021/01/29 04:47:10;;;;;;;1.90;1.80;;;-13.20;90.40;;;;;;5055652;28;20033;-71
2021/01/29 04:50:12;;;;;;;5.38;1.90;;;-13.20;90.60;;;;;;5055673;28;20025;-71
2021/01/29 04:52:44;;;;;;;2.92;2.05;;;-13.20;90.40;;;;;;5055561;28;20652;-70
2021/01/29 04:55:47;;;;;;;2.20;2.00;;;-13.10;90.10;;;;;;5055336;28;20025;-70
2021/01/29 04:58:37;;;;;;;2.25;2.05;;;-13.10;90.00;;;;;;5055447;28;20028;-67
2021/01/29 05:01:35;;;;;;;2.25;2.05;;;-13.20;89.50;;;;;;5055430;28;20492;-67
2021/01/29 05:04:44;;;;;;;1.95;1.73;;;-13.20;89.60;;;;;;5055576;28;20051;-69
2021/01/29 05:07:12;;;;;;;3.38;2.28;;;-13.20;89.40;;;;;;5055423;28;20392;-68
2021/01/29 05:10:03;;;;;;;2.40;2.10;;;-13.20;89.10;;;;;;5055219;28;20484;-68
2021/01/29 05:13:05;;;;;;;3.88;2.05;;;-13.10;89.30;;;;;;5055026;28;20029;-69
2021/01/29 05:15:59;;;;;;;4.47;2.47;;;-13.00;89.00;;;;;;5034926;28;20072;-69
2021/01/29 05:18:46;;;;;;;2.40;2.20;;;-12.90;88.30;;;;;;5034782;28;20048;-69
2021/01/29 05:21:41;;;;;;;2.25;1.88;;;-12.80;87.90;;;;;;5034979;28;20052;-71
2021/01/29 05:24:31;;;;;;;3.17;2.05;;;-12.70;86.60;;;;;;5035194;28;20026;-71
2021/01/29 05:27:12;;;;;;;3.88;2.53;;;-12.70;85.90;;;;;;5035360;28;20041;-71
2021/01/29 05:30:07;;;;;;;3.67;2.70;;;-12.70;85.90;;;;;;5035176;28;20030;-70
2021/01/29 05:32:54;;;;;;;5.35;2.60;;;-12.70;85.30;;;;;;5033888;28;20382;-72
2021/01/29 05:35:29;;;;;;;3.92;2.08;;;-12.70;84.50;;;;;;5034951;28;20028;-72
2021/01/29 05:38:24;;;;;;;1.95;1.85;;;-12.70;82.90;;;;;;5035298;28;20018;-73
2021/01/29 05:41:22;;;;;;;1.60;1.50;;;-12.30;99.90;;;;;;5034893;28;20033;-74
2021/01/29 05:44:21;;;;;;;2.38;2.05;;;-11.40;99.90;;;;;;5034773;28;20021;-70
2021/01/29 05:46:56;;;;;;;2.35;2.13;;;-11.70;96.10;;;;;;5034469;28;20386;-76
2021/01/29 05:49:24;;;;;;;2.00;1.80;;;-12.20;90.10;;;;;;5033167;28;20026;-75
2021/01/29 05:52:08;;;;;;;3.67;1.92;;;-12.40;86.60;;;;;;5039667;28;20025;-74
2021/01/29 05:54:36;;;;;;;5.47;1.63;;;-12.60;85.40;;;;;;5051487;28;20456;-75
2021/01/29 05:57:34;;;;;;;3.55;2.13;;;-12.60;84.70;;;;;;5052709;28;20113;-75
2021/01/29 06:00:19;;;;;;;4.10;2.20;;;-12.70;83.70;;;;;;5051266;28;20078;-74
2021/01/29 06:03:21;;;;;;;5.07;2.63;;;-12.70;85.00;;;;;;5042750;28;20495;-74
2021/01/29 06:06:06;;;;;;;10.45;2.17;;;-12.60;85.90;;;;;;5052854;28;20752;-74
2021/01/29 06:09:08;;;;;;;3.30;1.88;;;-12.60;85.50;;;;;;5053418;28;20025;-74
2021/01/29 06:11:42;;;;;;;3.15;2.05;;;-12.60;85.80;;;;;;5052747;28;20025;-74
2021/01/29 06:14:34;;;;;;;3.17;1.85;;;-12.60;86.00;;;;;;5052026;28;20028;-75
2021/01/29 06:17:37;;;;;;;2.67;1.80;;;-12.60;83.50;;;;;;5052232;28;20033;-77
2021/01/29 06:20:09;;;;;;;1.85;1.75;;;-12.80;82.40;;;;;;5051384;28;20021;-72
2021/01/29 06:22:50;;;;;;;2.55;1.90;;;-12.80;81.40;;;;;;5053625;28;20063;-76
2021/01/29 06:25:38;;;;;;;4.30;1.92;;;-12.90;80.70;;;;;;5053615;28;20021;-74
2021/01/29 06:28:22;;;;;;;4.00;2.30;;;-13.00;80.10;;;;;;5053497;28;20025;-74
2021/01/29 06:31:27;;;;;;;4.10;2.65;;;-12.10;99.90;;;;;;5053109;28;20041;-77
2021/01/29 06:34:15;;;;;;;12.75;4.45;;;-12.10;99.90;;;;;;5033843;28;20026;-76
2021/01/29 06:37:23;;;;;;;3.40;2.85;;;-12.60;89.80;;;;;;5033726;28;20053;-76
2021/01/29 06:40:07;;;;;;;2.10;1.77;;;-12.90;85.20;;;;;;5011373;28;20022;-80
2021/01/29 06:43:14;;;;;;;4.93;2.15;;;-13.00;83.70;;;;;;5030842;28;20049;-80
2021/01/29 06:45:50;;;;;;;2.20;2.00;;;-13.10;82.60;;;;;;5025086;28;20040;-84
2021/01/29 06:49:01;;;;;;;4.63;2.28;;;-11.90;99.90;;;;;;5033475;28;20029;-83
2021/01/29 06:52:00;;;;;;;3.83;2.10;;;-11.20;99.90;;;;;;5011265;28;20065;-83
2021/01/29 06:54:45;;;;;;;3.15;2.20;;;-11.80;99.90;;;;;;5031985;28;20048;-84
2021/01/29 06:57:32;;;;;;;3.20;2.53;;;-12.40;91.30;;;;;;5033451;28;20017;-83
2021/01/29 07:00:01;;;;;;;2.63;2.42;;;-12.60;89.20;;;;;;5033365;28;20026;-83
2021/01/29 07:03:04;;;;;;;6.32;2.45;;;-12.70;86.00;;;;;;5033236;28;20013;-84
2021/01/29 07:05:41;;;;;;;4.53;2.70;;;-12.80;85.00;;;;;;5033067;28;20022;-76
2021/01/29 07:08:28;;;;;;;4.60;2.17;;;-12.90;84.20;;;;;;5033954;28;20400;-77
2021/01/29 07:10:54;;;;;;;3.75;2.50;;;-12.90;86.90;;;;;;5051691;28;20025;-73
2021/01/29 07:13:32;;;;;;;4.40;2.25;;;-12.80;88.70;;;;;;5051343;28;20029;-81
2021/01/29 07:16:07;;;;;;;4.60;2.30;;;-12.80;86.50;;;;;;5052800;28;20084;-80
2021/01/29 07:18:54;;;;;;;2.67;2.47;;;-12.80;85.70;;;;;;5052569;28;20115;-82
2021/01/29 07:21:57;;;;;;;2.60;2.38;;;-12.80;86.50;;;;;;5052539;28;20017;-81
2021/01/29 07:24:50;;;;;;;3.85;2.33;;;-12.80;88.00;;;;;;5052622;28;20063;-81
2021/01/29 07:27:30;;;;;;;3.60;2.40;;;-12.80;86.80;;;;;;5052583;28;20119;-80
2021/01/29 07:30:16;;;;;;;4.47;2.53;;;-12.80;84.10;;;;;;5052586;28;20059;-80
2021/01/29 07:33:14;;;;;;;5.80;3.40;;;-12.80;85.10;;;;;;5051420;28;20362;-81
2021/01/29 07:35:53;;;;;;;4.32;2.50;;;-12.80;84.00;;;;;;5032580;28;20219;-80
2021/01/29 07:39:08;;;;;;;5.85;2.83;;;-12.90;82.50;;;;;;5052416;28;20516;-75
2021/01/29 07:41:40;;;;;;;4.40;2.10;;;-5.60;99.90;;;;;;5029516;28;20052;-71
2021/01/29 07:44:15;;;;;;;5.90;2.50;;;-5.30;99.90;;;;;;5048998;28;20071;-74
2021/01/29 07:46:50;;;;;;;6.05;2.38;;;-6.50;99.90;;;;;;5052323;28;20052;-74
2021/01/29 07:49:21;;;;;;;5.53;2.58;;;-8.40;99.90;;;;;;5052247;28;20495;-77
2021/01/29 07:52:41;;;;;;;4.43;2.40;;;-9.60;99.90;;;;;;5052246;28;20025;-76
2021/01/29 07:55:13;;;;;;;3.80;2.10;;;-10.30;99.90;;;;;;5011154;28;20404;-78
2021/01/29 07:58:17;;;;;;;2.38;2.08;;;-11.00;99.90;;;;;;5047502;28;20052;-75
2021/01/29 08:01:07;;;;;;;2.80;1.80;;;-11.30;99.90;;;;;;5051393;28;20138;-76
2021/01/29 08:03:54;;;;;;;2.00;1.83;;;-11.50;99.90;;;;;;5050418;28;20016;-75
2021/01/29 08:06:26;;;;;;;7.88;1.73;;;-11.60;99.90;;;;;;5051561;28;20097;-77
2021/01/29 08:09:04;;;;;;;2.28;2.08;;;-10.20;99.90;;;;;;5051753;28;20040;-78
2021/01/29 08:11:38;;;;;;;4.43;1.95;;;-8.40;99.90;;;;;;5031934;28;20109;-76
2021/01/29 08:14:42;;;;;;;2.72;2.13;;;-9.00;99.90;;;;;;5031826;28;20472;-78
2021/01/29 08:17:45;;;;;;;4.22;1.80;;;-9.70;99.90;;;;;;5026279;28;20041;-78
2021/01/29 08:20:16;;;;;;;4.63;1.60;;;-10.30;99.90;;;;;;5051442;28;20033;-77
2021/01/29 08:23:02;;;;;;;4.50;2.10;;;-10.60;99.90;;;;;;5051362;28;20607;-77
2021/01/29 08:25:37;;;;;;;3.70;1.85;;;-10.90;99.90;;;;;;5050194;28;20078;-82
2021/01/29 08:28:21;;;;;;;2.92;1.92;;;-11.10;99.60;;;;;;5050790;28;20033;-79
2021/01/29 08:31:14;;;;;;;2.35;1.90;;;-11.30;98.00;;;;;;5043782;28;20054;-80
2021/01/29 08:33:45;;;;;;;4.95;2.00;;;-11.60;96.80;;;;;;5048607;28;20040;-79
2021/01/29 08:36:49;;;;;;;4.65;2.30;;;-11.80;94.80;;;;;;5050433;28;20029;-78
2021/01/29 08:39:43;;;;;;;1.80;1.65;;;-12.00;94.70;;;;;;5030392;28;20064;-78
2021/01/29 08:42:20;;;;;;;4.07;1.90;;;-12.00;95.20;;;;;;5028401;28;20378;-78
2021/01/29 08:45:21;;;;;;;4.13;1.90;;;-12.20;94.10;;;;;;5050532;28;20120;-78
2021/01/29 08:47:59;;;;;;;5.60;2.20;;;-12.30;94.10;;;;;;5049749;28;20519;-82
2021/01/29 08:50:27;;;;;;;3.72;2.20;;;-12.40;92.60;;;;;;5051332;28;20025;-78
2021/01/29 08:53:05;;;;;;;4.75;2.03;;;-12.60;93.10;;;;;;5051366;28;20122;-77
2021/01/29 08:56:28;;;;;;;5.15;2.47;;;-12.70;92.80;;;;;;5051296;28;20092;-82
2021/01/29 08:59:05;;;;;;;1.90;1.70;;;-12.70;93.10;;;;;;5028909;28;20259;-78
2021/01/29 09:01:59;;;;;;;3.78;2.20;;;-11.50;99.90;;;;;;5026794;28;20128;-77
2021/01/29 09:04:50;;;;;;;6.65;2.22;;;-11.30;99.90;;;;;;5044183;28;20493;-80
2021/01/29 09:07:19;;;;;;;5.82;1.95;;;-11.70;99.70;;;;;;5051336;28;20064;-79
2021/01/29 09:09:46;;;;;;;5.03;2.67;;;-12.00;95.00;;;;;;5051408;28;20022;-77
2021/01/29 09:12:25;;;;;;;5.18;2.03;;;-12.20;94.20;;;;;;5051200;28;20040;-76
2021/01/29 09:15:03;;;;;;;6.00;2.20;;;-12.30;92.20;;;;;;5051214;28;20041;-77
2021/01/29 09:17:45;;;;;;;6.38;2.35;;;-12.40;93.40;;;;;;5051231;28;20025;-76
2021/01/29 09:20:12;;;;;;;5.03;2.33;;;-12.50;92.40;;;;;;5051560;28;20032;-77
2021/01/29 09:22:57;;;;;;;7.28;2.53;;;-12.50;92.80;;;;;;5051168;28;20481;-76
2021/01/29 09:25:29;;;;;;;7.85;2.75;;;-12.60;92.80;;;;;;5051293;28;20044;-77
2021/01/29 09:28:16;;;;;;;4.63;2.63;;;-12.60;92.40;;;;;;5054917;28;20174;-77
2021/01/29 09:31:02;;;;;;;3.88;2.22;;;-12.60;91.50;;;;;;5054800;28;20021;-75
2021/01/29 09:33:49;;;;;;;4.78;2.50;;;-12.60;99.90;;;;;;5054681;28;20021;-74
2021/01/29 09:36:17;;;;;;;5.50;3.00;;;-12.30;98.50;;;;;;5054631;28;20392;-73
2021/01/29 09:38:52;;;;;;;7.78;2.95;;;-12.50;93.00;;;;;;5054555;28;20032;-73
2021/01/29 09:41:54;;;;;;;5.22;2.67;;;-12.60;91.60;;;;;;5054656;28;20021;-73
2021/01/29 09:44:45;;;;;;;6.80;3.55;;;-12.60;90.80;;;;;;5045986;28;20036;-72
2021/01/29 09:47:16;;;;;;;10.43;4.03;;;-12.80;90.40;;;;;;5053190;28;20067;-72
2021/01/29 09:49:43;;;;;;;9.35;3.03;;;-12.80;90.20;;;;;;5054471;28;20431;-72
2021/01/29 09:52:12;;;;;;;7.40;2.70;;;-12.90;89.90;;;;;;5054469;28;20033;-73
2021/01/29 09:55:10;;;;;;;5.25;2.80;;;-13.00;88.90;;;;;;5052978;28;20083;-79
2021/01/29 09:58:00;;;;;;;4.50;2.40;;;-13.00;89.80;;;;;;5046393;28;20029;-70
2021/01/29 10:00:32;;;;;;;3.65;2.58;;;-13.10;88.40;;;;;;5034218;28;20037;-70
2021/01/29 10:03:13;;;;;;;3.35;2.17;;;-13.10;88.20;;;;;;5034232;28;20111;-75
2021/01/29 10:05:47;;;;;;;3.22;2.10;;;-11.50;99.90;;;;;;5047959;28;20449;-76
2021/01/29 10:08:42;;;;;;;4.32;2.45;;;-11.50;99.90;;;;;;5054084;28;20048;-75
2021/01/29 10:11:10;;;;;;;3.63;2.00;;;-11.50;99.90;;;;;;5045627;28;20029;-74
2021/01/29 10:14:03;;;;;;;5.18;2.17;;;-11.70;99.90;;;;;;5053777;28;20025;-75
2021/01/29 10:16:34;;;;;;;8.15;2.13;;;-12.00;97.60;;;;;;5053447;28;20090;-75
2021/01/29 10:19:20;;;;;;;3.03;2.20;;;-12.30;95.80;;;;;;5054122;28;20100;-75
2021/01/29 10:21:58;;;;;;;2.72;1.95;;;-12.40;94.30;;;;;;5053861;28;20028;-75
2021/01/29 10:24:52;;;;;;;3.05;2.30;;;-12.40;93.40;;;;;;5053367;28;20060;-82
2021/01/29 10:27:42;;;;;;;3.75;2.33;;;-11.50;99.90;;;;;;5023758;28;20132;-82
2021/01/29 10:30:38;;;;;;;2.75;2.35;;;-11.50;99.90;;;;;;5051338;28;20029;-83
2021/01/29 10:33:13;;;;;;;2.75;2.00;;;-11.90;94.20;;;;;;5051939;28;20052;-79
2021/01/29 10:35:57;;;;;;;8.80;2.33;;;-12.20;92.70;;;;;;5053043;28;20082;-79
2021/01/29 10:38:35;;;;;;;9.07;1.92;;;-12.40;91.50;;;;;;5052673;28;20067;-80
2021/01/29 10:41:15;;;;;;;3.15;2.03;;;-12.50;91.00;;;;;;5053016;28;20025;-74
2021/01/29 10:43:43;;;;;;;3.28;1.95;;;-12.60;91.00;;;;;;5052522;28;20117;-74
2021/01/29 10:46:36;;;;;;;2.60;2.08;;;-12.60;90.90;;;;;;5051789;28;20465;-76
2021/01/29 10:49:29;;;;;;;4.00;2.30;;;-12.60;91.00;;;;;;5051849;28;20025;-76
2021/01/29 10:52:13;;;;;;;3.63;2.13;;;-12.60;91.00;;;;;;5050507;28;20025;-75
2021/01/29 10:54:40;;;;;;;4.00;2.45;;;-12.70;90.70;;;;;;5052733;28;20570;-78
2021/01/29 10:57:38;;;;;;;2.90;2.10;;;-12.70;90.90;;;;;;5053101;28;20025;-76
2021/01/29 11:00:32;;;;;;;3.50;2.20;;;-12.70;90.90;;;;;;5052831;28;20047;-75
2021/01/29 11:03:17;;;;;;;6.25;2.22;;;-12.70;90.60;;;;;;5051748;28;20045;-75
2021/01/29 11:05:47;;;;;;;3.53;2.17;;;-12.70;90.80;;;;;;5053301;28;20060;-74
2021/01/29 11:08:38;;;;;;;2.30;2.00;;;-12.70;90.70;;;;;;5053152;28;20056;-75
2021/01/29 11:11:21;;;;;;;5.72;2.40;;;-12.70;90.60;;;;;;5053061;28;20046;-75
2021/01/29 11:13:52;;;;;;;2.08;1.90;;;-12.60;90.50;;;;;;5052654;28;20039;-75
2021/01/29 11:16:25;;;;;;;5.38;2.17;;;-12.60;90.40;;;;;;5052834;28;20508;-74
2021/01/29 11:18:58;;;;;;;3.28;2.10;;;-12.60;90.50;;;;;;5052823;28;20070;-75
2021/01/29 11:21:35;;;;;;;2.20;2.00;;;-12.70;90.30;;;;;;5052621;28;20036;-76
2021/01/29 11:24:17;;;;;;;4.40;1.90;;;-12.70;90.60;;;;;;5052512;28;20104;-81
2021/01/29 11:26:55;;;;;;;3.63;2.38;;;-12.70;90.60;;;;;;5051955;28;20082;-73
2021/01/29 11:29:47;;;;;;;5.45;2.05;;;-12.70;90.70;;;;;;5049664;28;20040;-72
2021/01/29 11:32:24;;;;;;;2.35;1.30;;;-12.70;90.90;;;;;;5050564;28;20024;-67
2021/01/29 11:35:24;;;;;;;6.97;2.35;;;-10.60;99.90;;;;;;5052764;28;20053;-77
2021/01/29 11:37:55;;;;;;;6.75;2.38;;;-6.90;99.90;;;;;;5041127;28;20037;-74
2021/01/29 11:40:25;;;;;;;5.65;2.28;;;-7.90;99.90;;;;;;5050107;28;20510;-74
2021/01/29 11:43:07;;;;;;;5.80;2.67;;;-9.00;99.90;;;;;;5049065;28;20029;-75
2021/01/29 11:45:51;;;;;;;7.20;2.67;;;-9.90;99.90;;;;;;5049711;28;20036;-76
2021/01/29 11:48:34;;;;;;;6.53;2.42;;;-10.70;99.90;;;;;;5049573;28;20029;-76
2021/01/29 11:51:28;;;;;;;6.32;2.55;;;-11.10;99.90;;;;;;5052120;28;20112;-76
2021/01/29 11:54:00;;;;;;;10.40;2.60;;;-11.50;99.90;;;;;;5046509;28;20178;-77
2021/01/29 11:56:39;;;;;;;6.15;2.70;;;-11.60;99.90;;;;;;5049714;28;20012;-76
2021/01/29 11:59:12;;;;;;;4.75;2.45;;;-11.70;98.50;;;;;;5051319;28;20357;-76
2021/01/29 12:01:56;;;;;;;4.45;2.30;;;-11.70;96.60;;;;;;5051649;28;20501;-75
2021/01/29 12:05:06;;;;;;;4.07;2.38;;;-11.80;94.90;;;;;;5051791;28;20109;-76
2021/01/29 12:08:05;;;;;;;2.67;1.90;;;-11.80;93.60;;;;;;5050786;28;20123;-76
2021/01/29 12:10:46;;;;;;;3.47;2.20;;;-11.80;92.40;;;;;;5049772;28;20045;-77
2021/01/29 12:13:19;;;;;;;2.83;2.10;;;-11.80;92.70;;;;;;5050626;28;20056;-76
2021/01/29 12:15:48;;;;;;;2.80;2.00;;;-11.80;92.30;;;;;;5051572;28;20042;-77
2021/01/29 12:18:16;;;;;;;5.38;2.22;;;-11.80;91.90;;;;;;5051944;28;20072;-75
2021/01/29 12:20:44;;;;;;;3.42;1.83;;;-11.90;91.60;;;;;;5051860;28;20389;-80
2021/01/29 12:23:09;;;;;;;5.57;2.70;;;-11.90;91.60;;;;;;5051999;28;20055;-75
2021/01/29 12:25:58;;;;;;;4.80;2.75;;;-11.90;91.80;;;;;;5051928;28;20021;-77
2021/01/29 12:28:54;;;;;;;5.28;2.38;;;-11.90;91.60;;;;;;5051867;28;20061;-76
2021/01/29 12:31:44;;;;;;;4.55;2.80;;;-11.90;91.90;;;;;;5051753;28;20025;-75
2021/01/29 12:34:27;;;;;;;15.18;7.10;;;-11.90;91.60;;;;;;5051898;28;20032;-76
2021/01/29 12:36:59;;;;;;;11.93;5.53;;;-11.90;91.40;;;;;;5050837;28;20890;-76
2021/01/29 12:39:32;;;;;;;14.00;6.90;;;-11.90;91.30;;;;;;5049653;28;20079;-75
2021/01/29 12:42:16;;;;;;;17.40;7.55;;;-11.90;91.20;;;;;;5050127;28;20074;-76
2021/01/29 12:44:50;;;;;;;6.63;3.45;;;-11.90;91.30;;;;;;5049098;28;20050;-74
2021/01/29 12:47:36;;;;;;;4.47;3.38;;;-11.90;91.40;;;;;;5029537;28;20060;-75
2021/01/29 12:50:32;;;;;;;3.03;2.40;;;-11.90;91.40;;;;;;5039412;28;20064;-75
2021/01/29 12:53:15;;;;;;;2.38;1.90;;;-11.80;91.30;;;;;;5049260;28;20500;-74
2021/01/29 12:56:04;;;;;;;2.05;1.80;;;-11.80;91.40;;;;;;5049842;28;20029;-77
2021/01/29 12:58:36;;;;;;;2.28;1.90;;;-11.70;91.00;;;;;;5049520;28;20029;-77
2021/01/29 13:01:06;;;;;;;5.28;2.35;;;-11.70;90.30;;;;;;5053591;28;20033;-76
2021/01/29 13:03:54;;;;;;;3.53;2.15;;;-11.70;90.10;;;;;;5053608;28;20043;-75
2021/01/29 13:06:45;;;;;;;2.78;2.10;;;-11.80;89.90;;;;;;5054971;28;20536;-79
2021/01/29 13:09:33;;;;;;;3.13;1.92;;;-11.80;90.00;;;;;;5055044;28;20036;-81
2021/01/29 13:12:25;;;;;;;4.75;2.08;;;-9.80;99.90;;;;;;5055378;28;20090;-80
2021/01/29 13:14:54;;;;;;;7.45;2.00;;;-9.00;99.90;;;;;;5055044;28;20060;-81
2021/01/29 13:17:19;;;;;;;3.28;2.10;;;-9.60;99.90;;;;;;5054914;28;20040;-81
2021/01/29 13:19:47;;;;;;;7.55;2.42;;;-10.10;99.90;;;;;;5054986;28;20021;-81
2021/01/29 13:22:19;;;;;;;4.30;2.13;;;-10.40;99.90;;;;;;5054716;28;20481;-81
2021/01/29 13:25:12;;;;;;;2.50;1.90;;;-10.60;99.90;;;;;;5054691;28;20399;-80
2021/01/29 13:27:47;;;;;;;5.28;2.10;;;-10.70;99.90;;;;;;5054711;28;20103;-79
2021/01/29 13:30:19;;;;;;;3.05;1.95;;;-10.80;95.20;;;;;;5055090;28;20036;-80
2021/01/29 13:32:47;;;;;;;5.10;2.50;;;-11.00;92.90;;;;;;5054223;28;20059;-80
2021/01/29 13:35:19;;;;;;;3.60;2.40;;;-11.00;91.40;;;;;;5054962;28;20040;-79
2021/01/29 13:37:44;;;;;;;2.08;1.95;;;-11.10;91.90;;;;;;5054640;28;20025;-75
2021/01/29 13:40:23;;;;;;;5.93;2.40;;;-11.10;90.00;;;;;;5054802;28;20028;-79
2021/01/29 13:42:49;;;;;;;4.97;2.42;;;-10.90;95.80;;;;;;5054915;28;20108;-80
2021/01/29 13:45:33;;;;;;;5.90;1.95;;;-11.10;91.60;;;;;;5054705;28;20451;-78
2021/01/29 13:48:06;;;;;;;4.50;2.95;;;-11.10;92.80;;;;;;5054722;28;20041;-77
2021/01/29 13:50:35;;;;;;;5.07;2.17;;;-11.10;91.50;;;;;;5054866;28;20469;-77
2021/01/29 13:53:22;;;;;;;3.67;1.80;;;-11.10;92.60;;;;;;5054785;28;20388;-77
2021/01/29 13:56:11;;;;;;;3.33;2.00;;;-11.10;92.50;;;;;;5051056;28;20048;-76
2021/01/29 13:58:49;;;;;;;2.63;2.30;;;-11.10;91.10;;;;;;5050374;28;20033;-78
2021/01/29 14:01:47;;;;;;;3.13;2.13;;;-11.10;91.30;;;;;;5054479;28;20032;-78
2021/01/29 14:04:33;;;;;;;5.22;2.30;;;-11.10;91.00;;;;;;5054410;28;20108;-79
2021/01/29 14:06:58;;;;;;;5.32;2.10;;;-11.10;91.10;;;;;;5053595;28;20037;-80
2021/01/29 14:09:24;;;;;;;3.67;2.20;;;-11.10;91.00;;;;;;5053629;28;20032;-81
2021/01/29 14:12:46;;;;;;;6.38;2.30;;;-11.20;89.60;;;;;;5053125;28;20036;-80
2021/01/29 14:15:21;;;;;;;3.15;1.92;;;-11.20;87.40;;;;;;4991627;28;20046;-80
2021/01/29 14:18:25;;;;;;;4.88;1.83;;;-11.30;87.10;;;;;;5044966;28;20040;-80
2021/01/29 14:21:14;;;;;;;5.70;2.50;;;-11.30;88.20;;;;;;5032848;28;20116;-79
2021/01/29 14:24:03;;;;;;;4.40;2.60;;;-11.30;86.90;;;;;;5036785;28;20020;-79
2021/01/29 14:26:41;;;;;;;3.08;2.20;;;-11.40;85.90;;;;;;5050665;28;20037;-79
2021/01/29 14:29:29;;;;;;;3.28;1.92;;;-11.40;83.80;;;;;;5053321;28;20029;-80
2021/01/29 14:32:15;;;;;;;4.00;2.00;;;-11.50;83.40;;;;;;5047615;28;20071;-80
2021/01/29 14:35:10;;;;;;;2.38;1.70;;;-11.60;83.40;;;;;;5045557;28;20025;-79
2021/01/29 14:38:05;;;;;;;2.20;2.00;;;-11.70;83.70;;;;;;5053277;28;20384;-76
2021/01/29 14:40:52;;;;;;;2.90;1.95;;;-12.00;84.50;;;;;;5053663;28;20029;-80
2021/01/29 14:43:37;;;;;;;3.72;2.17;;;-12.10;85.40;;;;;;5042187;28;20044;-75
2021/01/29 14:46:30;;;;;;;3.33;2.35;;;-12.30;86.30;;;;;;5052896;28;20064;-80
2021/01/29 14:49:08;;;;;;;3.05;2.28;;;-12.30;87.30;;;;;;5051277;28;20048;-80
2021/01/29 14:51:39;;;;;;;4.35;1.70;;;-12.50;87.50;;;;;;5050785;28;20443;-83
2021/01/29 14:54:08;;;;;;;4.47;2.10;;;-12.60;88.20;;;;;;5051890;28;20092;-80
2021/01/29 14:56:57;;;;;;;3.28;2.25;;;-12.60;89.30;;;;;;5052836;28;20082;-79
2021/01/29 14:59:50;;;;;;;1.67;1.58;;;-12.70;89.70;;;;;;5052934;28;20052;-82
2021/01/29 15:02:38;;;;;;;2.03;1.92;;;-12.70;89.50;;;;;;5051449;28;20391;-81
2021/01/29 15:05:05;;;;;;;4.55;2.22;;;-12.70;89.70;;;;;;5051995;28;20025;-79
2021/01/29 15:07:35;;;;;;;2.35;1.70;;;-12.80;89.60;;;;;;5049982;28;20033;-78
2021/01/29 15:10:25;;;;;;;3.35;2.17;;;-12.80;89.70;;;;;;5052879;28;20051;-79
2021/01/29 15:12:52;;;;;;;3.47;2.25;;;-12.80;89.70;;;;;;5051632;28;20065;-79
2021/01/29 15:15:21;;;;;;;2.20;2.03;;;-12.80;89.20;;;;;;5052935;28;20041;-78
2021/01/29 15:18:01;;;;;;;2.97;2.20;;;-12.80;89.40;;;;;;5053093;28;20487;-78
2021/01/29 15:20:36;;;;;;;2.47;2.15;;;-12.90;89.50;;;;;;5053091;28;20051;-79
2021/01/29 15:23:24;;;;;;;2.00;1.80;;;-12.90;89.60;;;;;;5052495;28;20476;-79
2021/01/29 15:25:53;;;;;;;4.40;2.13;;;-12.90;89.10;;;;;;5048505;28;20033;-78
2021/01/29 15:28:26;;;;;;;2.10;1.85;;;-13.00;89.10;;;;;;5051636;28;20037;-79
2021/01/29 15:30:52;;;;;;;3.80;2.22;;;-13.00;89.20;;;;;;5052682;28;20481;-79
2021/01/29 15:33:35;;;;;;;2.67;2.00;;;-13.00;89.20;;;;;;5052426;28;20083;-79
2021/01/29 15:36:16;;;;;;;6.97;2.38;;;-13.10;89.20;;;;;;5051434;28;20662;-79
2021/01/29 15:38:57;;;;;;;9.88;2.72;;;-13.10;89.50;;;;;;5051333;28;20067;-79
2021/01/29 15:41:25;;;;;;;;;;;-13.00;90.00;;;;;;5051490;28;20480;-80
2021/01/29 15:43:53;;;;;;;8.00;3.22;;;-13.10;88.20;;;;;;5052205;28;20331;-79
2021/01/29 15:47:06;;;;;;;5.18;2.92;;;-13.10;88.10;;;;;;5052286;28;20025;-79
2021/01/29 15:49:49;;;;;;;5.05;2.42;;;-13.20;88.30;;;;;;5051192;28;20056;-79
2021/01/29 15:52:15;;;;;;;2.55;2.13;;;-13.30;88.90;;;;;;5052235;28;20021;-79
2021/01/29 15:54:47;;;;;;;3.05;2.50;;;-13.40;88.70;;;;;;5052333;28;20039;-79
2021/01/29 15:57:33;;;;;;;4.18;2.63;;;-13.40;88.90;;;;;;5057140;28;20024;-78
2021/01/29 16:00:00;;;;;;;2.83;2.22;;;-13.40;88.90;;;;;;5052302;28;20485;-77
2021/01/29 16:02:47;;;;;;;3.88;2.03;;;-13.40;88.60;;;;;;5050728;28;20033;-77
2021/01/29 16:05:22;;;;;;;2.53;2.10;;;-13.50;88.70;;;;;;5052127;28;20047;-77
2021/01/29 16:08:01;;;;;;;2.42;1.92;;;-13.60;88.80;;;;;;5051905;28;20087;-77
2021/01/29 16:10:28;;;;;;;6.20;2.38;;;-13.50;89.00;;;;;;5052256;28;20074;-77
2021/01/29 16:13:09;;;;;;;2.72;2.13;;;-13.60;88.70;;;;;;5050547;28;20480;-77
2021/01/29 16:15:35;;;;;;;2.40;2.20;;;-13.60;88.60;;;;;;5052057;28;20049;-78
2021/01/29 16:18:09;;;;;;;2.13;2.03;;;-13.60;88.90;;;;;;5050333;28;20028;-76
2021/01/29 16:20:39;;;;;;;3.53;2.17;;;-13.70;88.20;;;;;;5046642;28;20550;-78
2021/01/29 16:23:15;;;;;;;3.90;2.22;;;-13.80;87.90;;;;;;5050692;28;20036;-77
2021/01/29 16:25:41;;;;;;;6.95;2.50;;;-13.80;88.20;;;;;;5051763;28;20075;-78
2021/01/29 16:28:13;;;;;;;2.60;2.08;;;-13.80;88.30;;;;;;5051450;28;20381;-79
2021/01/29 16:30:39;;;;;;;2.63;2.17;;;-13.90;88.50;;;;;;5051011;28;20032;-79
2021/01/29 16:33:16;;;;;;;2.40;2.20;;;-13.90;88.30;;;;;;5046608;28;20029;-79
2021/01/29 16:35:45;;;;;;;5.28;2.53;;;-14.00;88.30;;;;;;5051287;28;20078;-78
2021/01/29 16:38:31;;;;;;;6.10;2.78;;;-14.00;88.20;;;;;;5054952;28;20051;-78
2021/01/29 16:40:58;;;;;;;4.82;2.55;;;-14.00;88.10;;;;;;5055546;28;20384;-79
2021/01/29 16:43:36;;;;;;;4.20;2.67;;;-14.00;87.40;;;;;;5052300;28;20022;-78
2021/01/29 16:46:34;;;;;;;5.57;2.78;;;-14.00;87.60;;;;;;5054388;28;20033;-83
2021/01/29 16:49:18;;;;;;;4.50;2.33;;;-14.00;87.50;;;;;;5012720;28;20073;-79
2021/01/29 16:51:52;;;;;;;2.70;2.22;;;-14.10;87.50;;;;;;5035231;28;20164;-80
2021/01/29 16:54:22;;;;;;;4.43;2.40;;;-14.10;87.50;;;;;;5053422;28;20049;-77
2021/01/29 16:56:49;;;;;;;;;;;-14.10;87.50;;;;;;5055679;28;20025;-77
2021/01/29 16:59:19;;;;;;;2.00;1.90;;;-13.70;99.90;;;;;;5054043;28;19911;-78
2021/01/29 17:01:49;;;;;;;3.38;2.75;;;-13.70;95.00;;;;;;5055532;28;20024;-76
2021/01/29 17:04:16;;;;;;;4.55;3.20;;;-13.90;91.30;;;;;;5055532;28;20035;-81
2021/01/29 17:06:53;;;;;;;8.30;3.53;;;-14.00;90.20;;;;;;5055269;28;20059;-77
2021/01/29 17:09:24;;;;;;;4.38;2.30;;;-14.10;89.30;;;;;;5055515;28;20477;-76
2021/01/29 17:11:50;;;;;;;3.83;2.95;;;-14.10;89.20;;;;;;5055252;28;20037;-75
2021/01/29 17:14:20;;;;;;;6.32;3.25;;;-14.20;88.80;;;;;;5055380;28;20533;-77
2021/01/29 17:16:50;;;;;;;11.85;5.07;;;-14.30;88.90;;;;;;5054933;28;20052;-75
2021/01/29 17:19:19;;;;;;;29.92;9.52;;;-14.30;88.40;;;;;;5055343;28;20483;-76
2021/01/29 17:21:56;;;;;;;23.77;7.43;;;-14.30;88.70;;;;;;5054955;28;20029;-79
2021/01/29 17:24:26;;;;;;;13.77;5.70;;;-14.30;88.30;;;;;;5055562;28;20028;-76
2021/01/29 17:26:56;;;;;;;10.35;4.88;;;-13.90;99.90;;;;;;5043726;28;20041;-78
2021/01/29 17:29:32;;;;;;;5.75;3.60;;;-13.90;92.50;;;;;;5053275;28;20037;-78
2021/01/29 17:32:00;;;;;;;3.40;2.40;;;-14.10;90.10;;;;;;5035259;28;20026;-79
2021/01/29 17:34:30;;;;;;;2.75;2.55;;;-14.30;89.30;;;;;;5048462;28;20071;-75
2021/01/29 17:37:15;;;;;;;8.02;2.75;;;-14.30;88.80;;;;;;5046662;28;20025;-80
2021/01/29 17:39:43;;;;;;;2.70;2.50;;;-14.40;88.00;;;;;;5052366;28;20021;-79
2021/01/29 17:42:18;;;;;;;5.13;2.90;;;-14.50;88.10;;;;;;5051860;28;20020;-79
2021/01/29 17:44:56;;;;;;;5.32;3.17;;;-14.50;88.10;;;;;;5044916;28;20056;-80
2021/01/29 17:47:31;;;;;;;4.20;2.72;;;-14.60;88.00;;;;;;5047266;28;20381;-79
2021/01/29 17:50:20;;;;;;;6.43;3.08;;;-14.50;87.80;;;;;;5034448;28;20029;-82
2021/01/29 17:52:50;;;;;;;11.13;3.80;;;-14.60;87.10;;;;;;5033757;28;20026;-79
2021/01/29 17:55:21;;;;;;;10.77;4.30;;;-14.60;87.40;;;;;;5048347;28;20033;-82
2021/01/29 17:57:47;;;;;;;14.52;5.80;;;-14.70;87.20;;;;;;5051357;28;20493;-82
2021/01/29 18:00:20;;;;;;;7.13;3.88;;;-14.70;86.90;;;;;;5046942;28;20120;-80
2021/01/29 18:03:06;;;;;;;10.68;4.38;;;-14.70;87.00;;;;;;5050560;28;20030;-79
2021/01/29 18:05:55;;;;;;;12.40;4.90;;;-14.80;86.80;;;;;;5032735;28;20370;-79